Terminal Aerodrome Forecast
Issued by NWS Sterling, VA

Home | Current Version | Previous Version | Text Only | Print | Product List | Glossary On
Versions: 1 2 3 4 5 6 7 8 9 10 11 12 13 14 15 16 17 18 19 20 21 22
000
FTUS41 KLWX 200800 AAA
TAFBWI
TAF AMD
KBWI 200847Z 2009/2112 00000KT P6SM FEW200
     FM201400 19006KT P6SM BKN200
     FM201800 19011G17KT P6SM BKN200
     FM202300 18005KT P6SM BKN200
     FM211100 00000KT P6SM SCT060=

USA.gov is the U.S. government's official web portal to all federal, state and local government web resources and services.